sensor_id;sensor_type;location;lat;lon;timestamp;pressure;altitude;pressure_sealevel;temperature;humidity
42125;BME280;27787;44.594;11.046;2023-02-10T00:00:03;103192.88;;;1.43;53.79
42125;BME280;27787;44.594;11.046;2023-02-10T00:02:49;103183.25;;;1.42;53.87
42125;BME280;27787;44.594;11.046;2023-02-10T00:05:33;103185.63;;;1.39;54.17
42125;BME280;27787;44.594;11.046;2023-02-10T00:08:17;103186.28;;;1.36;53.83
42125;BME280;27787;44.594;11.046;2023-02-10T00:11:04;103181.06;;;1.36;54.20
42125;BME280;27787;44.594;11.046;2023-02-10T00:13:49;103184.16;;;1.42;53.82
42125;BME280;27787;44.594;11.046;2023-02-10T00:16:33;103178.97;;;1.42;53.92
42125;BME280;27787;44.594;11.046;2023-02-10T00:19:19;103178.97;;;1.42;53.45
42125;BME280;27787;44.594;11.046;2023-02-10T00:22:04;103177.03;;;1.40;53.86
42125;BME280;27787;44.594;11.046;2023-02-10T00:24:48;103179.63;;;1.30;54.03
42125;BME280;27787;44.594;11.046;2023-02-10T00:27:32;103179.25;;;1.25;54.42
42125;BME280;27787;44.594;11.046;2023-02-10T00:30:16;103177.31;;;1.23;54.80
42125;BME280;27787;44.594;11.046;2023-02-10T00:33:01;103177.03;;;1.30;54.49
42125;BME280;27787;44.594;11.046;2023-02-10T00:35:45;103175.75;;;1.35;54.07
42125;BME280;27787;44.594;11.046;2023-02-10T00:38:30;103182.78;;;1.36;53.80
42125;BME280;27787;44.594;11.046;2023-02-10T00:41:15;103171.69;;;1.38;53.81
42125;BME280;27787;44.594;11.046;2023-02-10T00:44:00;103177.03;;;1.40;53.39
42125;BME280;27787;44.594;11.046;2023-02-10T00:46:45;103175.88;;;1.36;53.38
42125;BME280;27787;44.594;11.046;2023-02-10T00:49:29;103173.41;;;1.38;53.28
42125;BME280;27787;44.594;11.046;2023-02-10T00:52:14;103167.53;;;1.40;53.05
42125;BME280;27787;44.594;11.046;2023-02-10T00:54:58;103171.81;;;1.40;52.95
42125;BME280;27787;44.594;11.046;2023-02-10T00:57:42;103170.13;;;1.40;52.97
42125;BME280;27787;44.594;11.046;2023-02-10T01:00:27;103170.78;;;1.38;52.87
42125;BME280;27787;44.594;11.046;2023-02-10T01:03:11;103169.63;;;1.34;53.09
42125;BME280;27787;44.594;11.046;2023-02-10T01:05:55;103173.53;;;1.29;53.36
42125;BME280;27787;44.594;11.046;2023-02-10T01:08:39;103167.03;;;1.24;53.15
42125;BME280;27787;44.594;11.046;2023-02-10T01:11:23;103175.63;;;1.23;53.60
42125;BME280;27787;44.594;11.046;2023-02-10T01:14:07;103167.56;;;1.20;53.30
42125;BME280;27787;44.594;11.046;2023-02-10T01:16:52;103160.69;;;1.21;53.21
42125;BME280;27787;44.594;11.046;2023-02-10T01:19:36;103158.59;;;1.16;53.16
42125;BME280;27787;44.594;11.046;2023-02-10T01:22:20;103152.88;;;1.10;53.37
42125;BME280;27787;44.594;11.046;2023-02-10T01:27:53;103153.66;;;1.09;53.67
42125;BME280;27787;44.594;11.046;2023-02-10T01:30:37;103148.47;;;1.09;53.28
42125;BME280;27787;44.594;11.046;2023-02-10T01:33:21;103153.78;;;1.11;53.37
42125;BME280;27787;44.594;11.046;2023-02-10T01:36:12;103151.19;;;1.11;53.38
42125;BME280;27787;44.594;11.046;2023-02-10T01:38:58;103139.63;;;1.07;53.22
42125;BME280;27787;44.594;11.046;2023-02-10T01:41:42;103139.38;;;1.04;52.84
42125;BME280;27787;44.594;11.046;2023-02-10T01:47:11;103139.38;;;1.04;53.03
42125;BME280;27787;44.594;11.046;2023-02-10T01:49:56;103136.91;;;1.06;53.32
42125;BME280;27787;44.594;11.046;2023-02-10T01:52:41;103133.53;;;1.07;53.42
42125;BME280;27787;44.594;11.046;2023-02-10T01:55:30;103127.41;;;1.06;53.02
42125;BME280;27787;44.594;11.046;2023-02-10T01:58:19;103125.31;;;1.02;52.90
42125;BME280;27787;44.594;11.046;2023-02-10T02:01:04;103130.94;;;0.97;53.14
42125;BME280;27787;44.594;11.046;2023-02-10T02:03:49;103134.31;;;0.96;52.80
42125;BME280;27787;44.594;11.046;2023-02-10T02:06:34;103122.88;;;0.94;53.04
42125;BME280;27787;44.594;11.046;2023-02-10T02:09:18;103128.19;;;0.95;53.28
42125;BME280;27787;44.594;11.046;2023-02-10T02:12:14;103130.16;;;0.98;53.24
42125;BME280;27787;44.594;11.046;2023-02-10T02:15:05;103124.41;;;1.02;52.94
42125;BME280;27787;44.594;11.046;2023-02-10T02:34:01;103119.34;;;0.63;54.92
42125;BME280;27787;44.594;11.046;2023-02-10T02:36:54;103113.53;;;0.55;54.99
42125;BME280;27787;44.594;11.046;2023-02-10T02:39:41;103117.41;;;0.50;55.46
42125;BME280;27787;44.594;11.046;2023-02-10T02:42:29;103121.28;;;0.35;55.85
42125;BME280;27787;44.594;11.046;2023-02-10T02:45:29;103111.53;;;0.32;55.94
42125;BME280;27787;44.594;11.046;2023-02-10T02:51:49;103090.09;;;0.35;55.82
42125;BME280;27787;44.594;11.046;2023-02-10T02:55:01;103098.69;;;0.34;55.97
42125;BME280;27787;44.594;11.046;2023-02-10T02:57:57;103093.34;;;0.32;55.88
42125;BME280;27787;44.594;11.046;2023-02-10T03:00:42;103086.25;;;0.40;55.54
42125;BME280;27787;44.594;11.046;2023-02-10T03:03:28;103087.41;;;0.43;55.66
42125;BME280;27787;44.594;11.046;2023-02-10T03:06:12;103087.25;;;0.52;55.26
42125;BME280;27787;44.594;11.046;2023-02-10T03:08:56;103087.00;;;0.59;55.17
42125;BME280;27787;44.594;11.046;2023-02-10T03:11:41;103086.75;;;0.56;55.14
42125;BME280;27787;44.594;11.046;2023-02-10T03:14:25;103080.75;;;0.47;55.27
42125;BME280;27787;44.594;11.046;2023-02-10T03:19:57;103088.31;;;-0.16;57.24
42125;BME280;27787;44.594;11.046;2023-02-10T03:22:41;103094.84;;;-0.40;58.11
42125;BME280;27787;44.594;11.046;2023-02-10T03:25:26;103095.66;;;-0.60;59.08
42125;BME280;27787;44.594;11.046;2023-02-10T03:28:10;103084.97;;;-0.73;59.97
42125;BME280;27787;44.594;11.046;2023-02-10T03:30:55;103084.19;;;-0.72;60.50
42125;BME280;27787;44.594;11.046;2023-02-10T03:33:39;103083.97;;;-0.65;59.98
42125;BME280;27787;44.594;11.046;2023-02-10T03:36:24;103079.59;;;-0.55;59.75
42125;BME280;27787;44.594;11.046;2023-02-10T03:39:08;103076.41;;;-0.43;59.37
42125;BME280;27787;44.594;11.046;2023-02-10T03:41:51;103071.94;;;-0.25;58.49
42125;BME280;27787;44.594;11.046;2023-02-10T03:44:37;103071.34;;;-0.02;57.62
42125;BME280;27787;44.594;11.046;2023-02-10T03:47:22;103071.41;;;0.18;56.38
42125;BME280;27787;44.594;11.046;2023-02-10T03:50:06;103071.00;;;0.34;55.50
42125;BME280;27787;44.594;11.046;2023-02-10T03:52:51;103071.81;;;0.43;54.75
42125;BME280;27787;44.594;11.046;2023-02-10T03:55:35;103075.56;;;0.47;54.27
42125;BME280;27787;44.594;11.046;2023-02-10T03:58:19;103080.88;;;0.48;54.50
42125;BME280;27787;44.594;11.046;2023-02-10T04:01:13;103083.50;;;0.48;54.16
42125;BME280;27787;44.594;11.046;2023-02-10T04:03:57;103084.28;;;0.47;54.37
42125;BME280;27787;44.594;11.046;2023-02-10T04:06:41;103087.78;;;0.48;54.47
42125;BME280;27787;44.594;11.046;2023-02-10T04:09:27;103089.72;;;0.50;54.24
42125;BME280;27787;44.594;11.046;2023-02-10T04:12:11;103095.69;;;0.49;54.12
42125;BME280;27787;44.594;11.046;2023-02-10T04:14:55;103095.69;;;0.49;54.10
42125;BME280;27787;44.594;11.046;2023-02-10T04:17:40;103099.09;;;0.48;54.04
42125;BME280;27787;44.594;11.046;2023-02-10T04:20:24;103095.44;;;0.46;53.80
42125;BME280;27787;44.594;11.046;2023-02-10T04:23:09;103104.94;;;0.46;54.13
42125;BME280;27787;44.594;11.046;2023-02-10T04:25:53;103107.41;;;0.44;54.20
42125;BME280;27787;44.594;11.046;2023-02-10T04:28:38;103113.50;;;0.45;54.00
42125;BME280;27787;44.594;11.046;2023-02-10T04:31:22;103116.47;;;0.49;54.01
42125;BME280;27787;44.594;11.046;2023-02-10T04:34:08;103112.19;;;0.50;53.96
42125;BME280;27787;44.594;11.046;2023-02-10T04:36:52;103116.47;;;0.49;54.45
42125;BME280;27787;44.594;11.046;2023-02-10T04:39:36;103119.88;;;0.48;54.24
42125;BME280;27787;44.594;11.046;2023-02-10T04:42:20;103119.47;;;0.44;54.21
42125;BME280;27787;44.594;11.046;2023-02-10T04:45:13;103126.91;;;0.39;54.24
42125;BME280;27787;44.594;11.046;2023-02-10T04:47:58;103124.91;;;0.37;54.29
42125;BME280;27787;44.594;11.046;2023-02-10T04:50:42;103128.03;;;0.33;54.02
42125;BME280;27787;44.594;11.046;2023-02-10T04:53:26;103134.78;;;0.31;54.19
42125;BME280;27787;44.594;11.046;2023-02-10T04:56:10;103134.00;;;0.32;53.49
42125;BME280;27787;44.594;11.046;2023-02-10T04:58:54;103132.84;;;0.38;53.07
42125;BME280;27787;44.594;11.046;2023-02-10T05:01:38;103129.88;;;0.44;52.93
42125;BME280;27787;44.594;11.046;2023-02-10T05:04:22;103126.63;;;0.46;52.92
42125;BME280;27787;44.594;11.046;2023-02-10T05:07:06;103117.91;;;0.46;52.88
42125;BME280;27787;44.594;11.046;2023-02-10T05:09:51;103122.47;;;0.48;52.99
42125;BME280;27787;44.594;11.046;2023-02-10T05:12:36;103127.53;;;0.47;53.18
42125;BME280;27787;44.594;11.046;2023-02-10T05:15:20;103118.97;;;0.48;53.19
42125;BME280;27787;44.594;11.046;2023-02-10T05:20:52;103120.41;;;0.54;53.08
42125;BME280;27787;44.594;11.046;2023-02-10T05:23:37;103118.44;;;0.52;53.35
42125;BME280;27787;44.594;11.046;2023-02-10T05:26:21;103117.25;;;0.48;53.09
42125;BME280;27787;44.594;11.046;2023-02-10T05:29:05;103129.63;;;0.41;52.96
42125;BME280;27787;44.594;11.046;2023-02-10T05:31:49;103125.94;;;0.18;53.27
42125;BME280;27787;44.594;11.046;2023-02-10T05:34:34;103138.34;;;0.02;54.18
42125;BME280;27787;44.594;11.046;2023-02-10T05:37:18;103132.25;;;0.02;54.72
42125;BME280;27787;44.594;11.046;2023-02-10T05:40:03;103139.91;;;0.00;54.66
42125;BME280;27787;44.594;11.046;2023-02-10T05:42:49;103146.28;;;0.04;55.06
42125;BME280;27787;44.594;11.046;2023-02-10T05:45:34;103135.63;;;0.11;54.30
42125;BME280;27787;44.594;11.046;2023-02-10T05:48:18;103136.84;;;0.14;54.36
42125;BME280;27787;44.594;11.046;2023-02-10T05:51:03;103141.63;;;0.20;54.57
42125;BME280;27787;44.594;11.046;2023-02-10T05:53:47;103145.13;;;0.10;54.54
42125;BME280;27787;44.594;11.046;2023-02-10T05:56:32;103150.13;;;-0.02;55.20
42125;BME280;27787;44.594;11.046;2023-02-10T05:59:16;103147.69;;;0.00;55.41
42125;BME280;27787;44.594;11.046;2023-02-10T06:02:25;103143.03;;;0.06;55.41
42125;BME280;27787;44.594;11.046;2023-02-10T06:05:09;103149.03;;;-0.14;55.60
42125;BME280;27787;44.594;11.046;2023-02-10T06:07:54;103153.78;;;-0.57;57.29
42125;BME280;27787;44.594;11.046;2023-02-10T06:10:39;103146.91;;;-0.95;58.60
42125;BME280;27787;44.594;11.046;2023-02-10T06:13:23;103148.88;;;-1.11;59.43
42125;BME280;27787;44.594;11.046;2023-02-10T06:16:08;103147.31;;;-1.09;59.54
42125;BME280;27787;44.594;11.046;2023-02-10T06:18:52;103147.31;;;-1.09;59.89
42125;BME280;27787;44.594;11.046;2023-02-10T06:21:36;103145.88;;;-1.15;60.02
42125;BME280;27787;44.594;11.046;2023-02-10T06:24:21;103151.84;;;-1.25;60.45
42125;BME280;27787;44.594;11.046;2023-02-10T06:27:05;103157.22;;;-1.32;61.03
42125;BME280;27787;44.594;11.046;2023-02-10T06:29:49;103165.97;;;-1.40;61.27
42125;BME280;27787;44.594;11.046;2023-02-10T06:32:33;103164.75;;;-1.44;61.73
42125;BME280;27787;44.594;11.046;2023-02-10T06:35:17;103160.06;;;-1.48;61.98
42125;BME280;27787;44.594;11.046;2023-02-10T06:38:02;103162.66;;;-1.48;61.93
42125;BME280;27787;44.594;11.046;2023-02-10T06:40:46;103156.84;;;-1.45;61.96
42125;BME280;27787;44.594;11.046;2023-02-10T06:43:31;103165.19;;;-1.39;62.12
42125;BME280;27787;44.594;11.046;2023-02-10T06:46:15;103172.75;;;-1.32;61.69
42125;BME280;27787;44.594;11.046;2023-02-10T06:48:59;103170.63;;;-1.28;61.57
42125;BME280;27787;44.594;11.046;2023-02-10T06:51:45;103171.81;;;-1.24;61.68
42125;BME280;27787;44.594;11.046;2023-02-10T06:54:29;103169.50;;;-1.21;61.15
42125;BME280;27787;44.594;11.046;2023-02-10T06:57:13;103180.91;;;-1.19;61.32
42125;BME280;27787;44.594;11.046;2023-02-10T06:59:57;103182.00;;;-1.17;61.17
42125;BME280;27787;44.594;11.046;2023-02-10T07:02:42;103187.31;;;-1.15;61.06
42125;BME280;27787;44.594;11.046;2023-02-10T07:05:27;103185.50;;;-1.16;61.27
42125;BME280;27787;44.594;11.046;2023-02-10T07:08:13;103204.81;;;-1.13;61.47
42125;BME280;27787;44.594;11.046;2023-02-10T07:10:57;103209.66;;;-1.07;61.13
42125;BME280;27787;44.594;11.046;2023-02-10T07:13:41;103220.47;;;-1.03;61.00
42125;BME280;27787;44.594;11.046;2023-02-10T07:16:26;103217.25;;;-1.00;60.90
42125;BME280;27787;44.594;11.046;2023-02-10T07:19:12;103224.53;;;-0.96;60.88
42125;BME280;27787;44.594;11.046;2023-02-10T07:21:56;103227.84;;;-0.88;60.58
42125;BME280;27787;44.594;11.046;2023-02-10T07:24:40;103224.75;;;-0.84;60.50
42125;BME280;27787;44.594;11.046;2023-02-10T07:27:24;103234.94;;;-0.77;60.14
42125;BME280;27787;44.594;11.046;2023-02-10T07:30:09;103226.03;;;-0.71;60.18
42125;BME280;27787;44.594;11.046;2023-02-10T07:32:54;103226.44;;;-0.66;59.88
42125;BME280;27787;44.594;11.046;2023-02-10T07:35:39;103227.66;;;-0.63;59.93
42125;BME280;27787;44.594;11.046;2023-02-10T07:38:24;103226.66;;;-0.54;60.01
42125;BME280;27787;44.594;11.046;2023-02-10T07:41:08;103235.25;;;-0.37;59.98
42125;BME280;27787;44.594;11.046;2023-02-10T07:43:52;103236.56;;;-0.13;59.39
42125;BME280;27787;44.594;11.046;2023-02-10T07:46:38;103240.41;;;0.11;58.63
42125;BME280;27787;44.594;11.046;2023-02-10T07:49:22;103240.13;;;0.27;58.78
42125;BME280;27787;44.594;11.046;2023-02-10T07:52:06;103244.41;;;0.37;59.75
42125;BME280;27787;44.594;11.046;2023-02-10T07:54:51;103245.09;;;0.44;60.05
42125;BME280;27787;44.594;11.046;2023-02-10T07:57:35;103251.72;;;0.51;59.10
42125;BME280;27787;44.594;11.046;2023-02-10T08:00:22;103254.09;;;0.58;58.73
42125;BME280;27787;44.594;11.046;2023-02-10T08:03:11;103250.63;;;0.68;58.19
42125;BME280;27787;44.594;11.046;2023-02-10T08:05:55;103235.69;;;0.75;58.28
42125;BME280;27787;44.594;11.046;2023-02-10T08:08:40;103238.03;;;0.82;58.45
42125;BME280;27787;44.594;11.046;2023-02-10T08:11:23;103244.78;;;0.91;58.34
42125;BME280;27787;44.594;11.046;2023-02-10T08:14:08;103242.47;;;0.94;58.22
42125;BME280;27787;44.594;11.046;2023-02-10T08:16:52;103247.16;;;0.98;57.63
42125;BME280;27787;44.594;11.046;2023-02-10T08:19:36;103247.53;;;1.02;57.18
42125;BME280;27787;44.594;11.046;2023-02-10T08:22:20;103247.66;;;1.04;56.48
42125;BME280;27787;44.594;11.046;2023-02-10T08:25:04;103244.94;;;1.12;56.63
42125;BME280;27787;44.594;11.046;2023-02-10T08:27:49;103250.69;;;1.18;56.51
42125;BME280;27787;44.594;11.046;2023-02-10T08:30:33;103256.41;;;1.25;55.98
42125;BME280;27787;44.594;11.046;2023-02-10T08:33:17;103248.34;;;1.32;55.06
42125;BME280;27787;44.594;11.046;2023-02-10T08:36:09;103257.19;;;1.44;55.01
42125;BME280;27787;44.594;11.046;2023-02-10T08:38:53;103256.78;;;1.50;54.83
42125;BME280;27787;44.594;11.046;2023-02-10T08:41:37;103255.75;;;1.58;55.07
42125;BME280;27787;44.594;11.046;2023-02-10T08:44:22;103259.88;;;1.66;55.58
42125;BME280;27787;44.594;11.046;2023-02-10T08:47:06;103263.50;;;1.78;56.62
42125;BME280;27787;44.594;11.046;2023-02-10T08:49:55;103260.09;;;1.89;56.44
42125;BME280;27787;44.594;11.046;2023-02-10T08:52:39;103267.09;;;2.00;56.15
42125;BME280;27787;44.594;11.046;2023-02-10T08:55:23;103270.47;;;2.10;55.08
42125;BME280;27787;44.594;11.046;2023-02-10T08:58:07;103271.47;;;2.22;53.75
42125;BME280;27787;44.594;11.046;2023-02-10T09:00:52;103265.97;;;2.29;53.35
42125;BME280;27787;44.594;11.046;2023-02-10T09:03:37;103269.31;;;2.38;53.24
42125;BME280;27787;44.594;11.046;2023-02-10T09:06:24;103275.25;;;2.47;53.38
42125;BME280;27787;44.594;11.046;2023-02-10T09:09:11;103278.38;;;2.53;53.82
42125;BME280;27787;44.594;11.046;2023-02-10T09:11:55;103280.94;;;2.63;53.59
42125;BME280;27787;44.594;11.046;2023-02-10T09:14:39;103279.19;;;2.74;51.38
42125;BME280;27787;44.594;11.046;2023-02-10T09:17:24;103280.44;;;2.79;50.72
42125;BME280;27787;44.594;11.046;2023-02-10T09:20:08;103290.88;;;2.79;50.87
42125;BME280;27787;44.594;11.046;2023-02-10T09:22:54;103287.13;;;2.76;51.09
42125;BME280;27787;44.594;11.046;2023-02-10T09:25:38;103290.75;;;2.78;51.58
42125;BME280;27787;44.594;11.046;2023-02-10T09:28:22;103293.84;;;2.84;51.31
42125;BME280;27787;44.594;11.046;2023-02-10T09:31:08;103298.22;;;2.95;51.23
42125;BME280;27787;44.594;11.046;2023-02-10T09:33:52;103300.94;;;2.96;51.29
42125;BME280;27787;44.594;11.046;2023-02-10T09:36:36;103307.22;;;3.10;48.93
42125;BME280;27787;44.594;11.046;2023-02-10T09:39:21;103306.44;;;3.11;48.97
42125;BME280;27787;44.594;11.046;2023-02-10T09:44:56;103305.06;;;3.27;46.89
42125;BME280;27787;44.594;11.046;2023-02-10T09:47:56;103302.91;;;3.33;46.78
42125;BME280;27787;44.594;11.046;2023-02-10T09:53:43;103319.00;;;3.61;45.26
42125;BME280;27787;44.594;11.046;2023-02-10T09:56:27;103325.59;;;3.67;45.02
42125;BME280;27787;44.594;11.046;2023-02-10T09:59:15;103327.69;;;3.83;44.74
42125;BME280;27787;44.594;11.046;2023-02-10T10:02:18;103333.81;;;3.83;42.96
42125;BME280;27787;44.594;11.046;2023-02-10T10:05:49;103330.97;;;3.80;44.20
42125;BME280;27787;44.594;11.046;2023-02-10T10:14:25;103329.19;;;3.91;44.08
42125;BME280;27787;44.594;11.046;2023-02-10T10:26:48;103316.75;;;3.89;44.30
42125;BME280;27787;44.594;11.046;2023-02-10T10:29:55;103309.41;;;3.95;44.63
42125;BME280;27787;44.594;11.046;2023-02-10T10:32:47;103298.03;;;3.94;44.15
42125;BME280;27787;44.594;11.046;2023-02-10T10:35:39;103301.56;;;3.95;44.50
42125;BME280;27787;44.594;11.046;2023-02-10T10:38:29;103295.66;;;3.97;44.23
42125;BME280;27787;44.594;11.046;2023-02-10T10:41:15;103284.63;;;4.01;44.27
42125;BME280;27787;44.594;11.046;2023-02-10T10:47:03;103281.47;;;4.17;44.02
42125;BME280;27787;44.594;11.046;2023-02-10T10:49:52;103272.13;;;4.21;43.80
42125;BME280;27787;44.594;11.046;2023-02-10T10:52:36;103278.59;;;4.26;44.35
42125;BME280;27787;44.594;11.046;2023-02-10T10:55:32;103277.69;;;4.37;43.70
42125;BME280;27787;44.594;11.046;2023-02-10T10:58:35;103270.75;;;4.37;43.96
42125;BME280;27787;44.594;11.046;2023-02-10T11:01:32;103271.75;;;4.39;44.12
42125;BME280;27787;44.594;11.046;2023-02-10T11:04:19;103270.97;;;4.40;44.17
42125;BME280;27787;44.594;11.046;2023-02-10T11:07:09;103264.81;;;4.40;44.70
42125;BME280;27787;44.594;11.046;2023-02-10T11:09:54;103265.81;;;4.54;43.92
42125;BME280;27787;44.594;11.046;2023-02-10T11:12:39;103285.16;;;4.56;44.31
42125;BME280;27787;44.594;11.046;2023-02-10T11:15:40;103267.00;;;4.46;44.85
42125;BME280;27787;44.594;11.046;2023-02-10T11:18:25;103278.34;;;4.46;45.05
42125;BME280;27787;44.594;11.046;2023-02-10T11:21:10;103281.63;;;4.55;45.02
42125;BME280;27787;44.594;11.046;2023-02-10T11:23:54;103271.94;;;4.66;45.20
42125;BME280;27787;44.594;11.046;2023-02-10T11:26:39;103268.50;;;4.67;44.95
42125;BME280;27787;44.594;11.046;2023-02-10T11:29:24;103262.63;;;4.69;44.73
42125;BME280;27787;44.594;11.046;2023-02-10T11:32:20;103260.09;;;4.71;44.68
42125;BME280;27787;44.594;11.046;2023-02-10T11:35:06;103260.53;;;4.77;44.69
42125;BME280;27787;44.594;11.046;2023-02-10T11:37:56;103254.03;;;4.84;44.51
42125;BME280;27787;44.594;11.046;2023-02-10T11:40:58;103247.50;;;4.90;44.18
42125;BME280;27787;44.594;11.046;2023-02-10T11:43:46;103239.28;;;4.97;44.49
42125;BME280;27787;44.594;11.046;2023-02-10T11:46:31;103238.34;;;5.09;43.36
42125;BME280;27787;44.594;11.046;2023-02-10T11:49:17;103235.94;;;5.12;43.74
42125;BME280;27787;44.594;11.046;2023-02-10T11:52:03;103224.22;;;5.07;43.58
42125;BME280;27787;44.594;11.046;2023-02-10T11:54:50;103232.41;;;5.11;43.72
42125;BME280;27787;44.594;11.046;2023-02-10T12:07:33;103203.06;;;5.42;42.09
42125;BME280;27787;44.594;11.046;2023-02-10T12:10:28;103211.22;;;5.46;41.80
42125;BME280;27787;44.594;11.046;2023-02-10T12:13:48;103209.13;;;5.54;42.10
42125;BME280;27787;44.594;11.046;2023-02-10T12:16:52;103199.47;;;5.53;42.14
42125;BME280;27787;44.594;11.046;2023-02-10T12:19:47;103195.22;;;5.55;41.86
42125;BME280;27787;44.594;11.046;2023-02-10T12:47:22;103156.91;;;5.83;41.16
42125;BME280;27787;44.594;11.046;2023-02-10T12:50:33;103148.88;;;5.80;40.48
42125;BME280;27787;44.594;11.046;2023-02-10T12:53:27;103140.09;;;5.80;41.27
42125;BME280;27787;44.594;11.046;2023-02-10T12:56:20;103140.84;;;5.90;41.76
42125;BME280;27787;44.594;11.046;2023-02-10T12:59:38;103142.34;;;6.00;39.97
42125;BME280;27787;44.594;11.046;2023-02-10T13:02:46;103144.44;;;6.06;40.02
42125;BME280;27787;44.594;11.046;2023-02-10T13:05:43;103152.09;;;6.03;40.58
42125;BME280;27787;44.594;11.046;2023-02-10T13:08:34;103145.16;;;6.03;40.59
42125;BME280;27787;44.594;11.046;2023-02-10T13:11:41;103147.16;;;6.07;40.61
42125;BME280;27787;44.594;11.046;2023-02-10T13:14:27;103141.72;;;6.04;40.61
42125;BME280;27787;44.594;11.046;2023-02-10T13:17:12;103146.44;;;6.10;40.13
42125;BME280;27787;44.594;11.046;2023-02-10T13:20:06;103128.94;;;6.24;40.10
42125;BME280;27787;44.594;11.046;2023-02-10T13:32:36;103127.31;;;6.39;38.77
42125;BME280;27787;44.594;11.046;2023-02-10T13:35:25;103128.31;;;6.41;37.84
42125;BME280;27787;44.594;11.046;2023-02-10T13:38:17;103117.31;;;6.33;37.59
42125;BME280;27787;44.594;11.046;2023-02-10T13:41:02;103117.31;;;6.33;37.76
42125;BME280;27787;44.594;11.046;2023-02-10T13:44:14;103116.38;;;6.46;37.59
42125;BME280;27787;44.594;11.046;2023-02-10T13:47:28;103111.88;;;6.58;38.54
42125;BME280;27787;44.594;11.046;2023-02-10T13:53:04;103105.16;;;6.48;37.07
42125;BME280;27787;44.594;11.046;2023-02-10T13:55:50;103111.59;;;6.54;37.18
42125;BME280;27787;44.594;11.046;2023-02-10T13:58:34;103107.53;;;6.59;37.43
42125;BME280;27787;44.594;11.046;2023-02-10T14:01:38;103109.28;;;6.73;37.60
42125;BME280;27787;44.594;11.046;2023-02-10T14:07:34;103105.75;;;6.72;35.35
42125;BME280;27787;44.594;11.046;2023-02-10T14:16:27;103096.53;;;6.79;35.67
42125;BME280;27787;44.594;11.046;2023-02-10T14:22:06;103101.97;;;6.97;35.75
42125;BME280;27787;44.594;11.046;2023-02-10T14:25:24;103088.59;;;6.92;36.05
42125;BME280;27787;44.594;11.046;2023-02-10T14:28:27;103081.88;;;6.97;36.19
42125;BME280;27787;44.594;11.046;2023-02-10T14:31:16;103085.66;;;7.02;36.58
42125;BME280;27787;44.594;11.046;2023-02-10T14:34:16;103094.19;;;7.13;35.69
42125;BME280;27787;44.594;11.046;2023-02-10T14:37:20;103078.41;;;7.13;34.84
42125;BME280;27787;44.594;11.046;2023-02-10T14:40:06;103085.56;;;7.16;35.32
42125;BME280;27787;44.594;11.046;2023-02-10T14:42:50;103083.56;;;7.26;35.15
42125;BME280;27787;44.594;11.046;2023-02-10T14:45:35;103073.97;;;7.27;35.22
42125;BME280;27787;44.594;11.046;2023-02-10T14:48:23;103069.44;;;7.24;34.92
42125;BME280;27787;44.594;11.046;2023-02-10T14:51:23;103072.63;;;7.33;34.99
42125;BME280;27787;44.594;11.046;2023-02-10T14:54:19;103068.69;;;7.42;34.98
42125;BME280;27787;44.594;11.046;2023-02-10T14:57:12;103059.44;;;7.48;35.05
42125;BME280;27787;44.594;11.046;2023-02-10T14:59:59;103061.78;;;7.58;35.00
42125;BME280;27787;44.594;11.046;2023-02-10T15:02:49;103062.41;;;7.69;34.64
42125;BME280;27787;44.594;11.046;2023-02-10T15:05:38;103062.56;;;7.72;35.13
42125;BME280;27787;44.594;11.046;2023-02-10T15:08:42;103065.34;;;7.75;35.06
42125;BME280;27787;44.594;11.046;2023-02-10T15:11:37;103065.03;;;7.85;34.19
42125;BME280;27787;44.594;11.046;2023-02-10T15:15:00;103064.69;;;7.79;34.56
42125;BME280;27787;44.594;11.046;2023-02-10T15:17:52;103062.34;;;7.84;33.85
42125;BME280;27787;44.594;11.046;2023-02-10T15:20:37;103054.59;;;7.87;34.48
42125;BME280;27787;44.594;11.046;2023-02-10T15:23:22;103053.19;;;7.93;34.34
42125;BME280;27787;44.594;11.046;2023-02-10T15:26:19;103049.59;;;7.91;34.27
42125;BME280;27787;44.594;11.046;2023-02-10T15:29:10;103056.84;;;7.95;33.93
42125;BME280;27787;44.594;11.046;2023-02-10T15:31:57;103055.69;;;7.90;34.24
42125;BME280;27787;44.594;11.046;2023-02-10T15:34:42;103056.34;;;7.86;34.38
42125;BME280;27787;44.594;11.046;2023-02-10T15:37:27;103065.72;;;7.81;34.73
42125;BME280;27787;44.594;11.046;2023-02-10T15:40:30;103072.66;;;7.81;34.62
42125;BME280;27787;44.594;11.046;2023-02-10T15:43:29;103067.81;;;7.72;35.13
42125;BME280;27787;44.594;11.046;2023-02-10T15:46:16;103057.44;;;7.59;35.63
42125;BME280;27787;44.594;11.046;2023-02-10T15:49:15;103070.81;;;7.63;35.22
42125;BME280;27787;44.594;11.046;2023-02-10T15:51:59;103069.59;;;7.57;35.67
42125;BME280;27787;44.594;11.046;2023-02-10T15:54:44;103059.25;;;7.60;35.15
42125;BME280;27787;44.594;11.046;2023-02-10T15:57:29;103063.22;;;7.53;35.65
42125;BME280;27787;44.594;11.046;2023-02-10T16:03:25;103055.91;;;7.48;35.23
42125;BME280;27787;44.594;11.046;2023-02-10T16:06:14;103056.38;;;7.40;35.61
42125;BME280;27787;44.594;11.046;2023-02-10T16:08:58;103053.03;;;7.43;35.22
42125;BME280;27787;44.594;11.046;2023-02-10T16:11:43;103056.28;;;7.39;35.96
42125;BME280;27787;44.594;11.046;2023-02-10T16:14:27;103057.94;;;7.22;36.16
42125;BME280;27787;44.594;11.046;2023-02-10T16:17:22;103066.94;;;7.11;36.83
42125;BME280;27787;44.594;11.046;2023-02-10T16:20:20;103065.03;;;7.08;37.34
42125;BME280;27787;44.594;11.046;2023-02-10T16:23:17;103069.47;;;6.95;37.87
42125;BME280;27787;44.594;11.046;2023-02-10T16:26:03;103069.72;;;6.85;38.50
42125;BME280;27787;44.594;11.046;2023-02-10T16:28:48;103070.91;;;6.75;38.80
42125;BME280;27787;44.594;11.046;2023-02-10T16:31:32;103071.78;;;6.61;39.34